createdAt,value
2022-08-23T00:02:28.303Z,44.53
2022-08-23T00:05:09.382Z,44.44
2022-08-23T00:07:39.792Z,44.77
2022-08-23T00:10:10.698Z,44.68
2022-08-23T00:12:39.817Z,44.81
2022-08-23T00:15:11.398Z,45.18
2022-08-23T00:17:42.314Z,45.51
2022-08-23T00:20:17.868Z,45.45
2022-08-23T00:22:46.507Z,45.99
2022-08-23T00:25:16.465Z,46.08
2022-08-23T00:27:45.431Z,46.23
2022-08-23T00:30:16.122Z,46.32
2022-08-23T00:32:46.884Z,46.41
2022-08-23T00:35:27.169Z,46.31
2022-08-23T00:38:31.917Z,46.55
2022-08-23T00:40:52.042Z,46.51
2022-08-23T00:43:48.387Z,46.41
2022-08-23T00:46:53.682Z,46.38
2022-08-23T00:49:23.969Z,46.63
2022-08-23T00:51:58.461Z,47.08
2022-08-23T00:54:30.301Z,47.10
2022-08-23T00:57:03.060Z,47.22
2022-08-23T00:59:31.483Z,47.01
2022-08-23T01:02:00.850Z,46.93
2022-08-23T01:04:37.921Z,47.19
2022-08-23T01:07:14.445Z,47.83
2022-08-23T01:09:45.431Z,47.98
2022-08-23T01:12:32.713Z,48.57
2022-08-23T01:15:07.098Z,48.71
2022-08-23T01:17:42.511Z,49.18
2022-08-23T01:20:18.025Z,48.91
2022-08-23T01:22:58.777Z,49.40
2022-08-23T01:25:32.852Z,49.52
2022-08-23T01:28:01.450Z,49.28
2022-08-23T01:30:33.906Z,49.15
2022-08-23T01:33:07.405Z,49.11
2022-08-23T01:35:41.191Z,49.12
2022-08-23T01:38:11.661Z,49.24
2022-08-23T01:40:42.861Z,49.16
2022-08-23T01:43:13.620Z,49.00
2022-08-23T01:45:43.992Z,49.45
2022-08-23T01:48:15.387Z,49.56
2022-08-23T01:50:43.723Z,49.59
2022-08-23T01:53:14.928Z,50.00
2022-08-23T01:55:49.442Z,50.04
2022-08-23T01:58:20.034Z,50.12
2022-08-23T02:00:49.072Z,49.99
2022-08-23T02:03:17.493Z,50.29
2022-08-23T02:05:46.046Z,50.22
2022-08-23T02:08:32.363Z,50.38
2022-08-23T02:11:10.196Z,50.36
2022-08-23T02:13:41.275Z,50.27
2022-08-23T02:16:14.929Z,50.34
2022-08-23T02:18:43.798Z,50.36
2022-08-23T02:21:13.406Z,50.53
2022-08-23T02:23:41.869Z,50.78
2022-08-23T02:26:11.605Z,50.81
2022-08-23T02:28:40.560Z,51.14
2022-08-23T02:31:09.218Z,51.50
2022-08-23T02:33:40.438Z,51.79
2022-08-23T02:36:09.752Z,52.04
2022-08-23T02:38:38.143Z,52.20
2022-08-23T02:41:07.191Z,52.45
2022-08-23T02:43:40.911Z,52.54
2022-08-23T02:46:10.550Z,52.58
2022-08-23T02:48:39.646Z,52.84
2022-08-23T02:51:10.605Z,53.16
2022-08-23T02:53:39.056Z,53.58
2022-08-23T02:56:21.267Z,53.64
2022-08-23T02:58:54.341Z,53.95
2022-08-23T03:01:27.069Z,53.99
2022-08-23T03:03:58.786Z,54.36
2022-08-23T03:06:29.384Z,54.28
2022-08-23T03:08:58.442Z,54.38
2022-08-23T03:11:27.405Z,54.78
2022-08-23T03:13:57.499Z,54.73
2022-08-23T03:16:26.309Z,55.01
2022-08-23T03:18:55.097Z,55.28
2022-08-23T03:21:24.073Z,55.38
2022-08-23T03:23:53.476Z,55.48
2022-08-23T03:26:22.409Z,55.80
2022-08-23T03:28:50.846Z,55.72
2022-08-23T03:31:21.065Z,55.86
2022-08-23T03:34:00.138Z,55.97
2022-08-23T03:36:28.568Z,56.50
2022-08-23T03:38:59.076Z,56.34
2022-08-23T03:41:27.768Z,56.16
2022-08-23T03:43:56.233Z,56.23
2022-08-23T03:46:27.095Z,56.15
2022-08-23T03:49:03.522Z,55.99
2022-08-23T03:51:42.673Z,56.09
2022-08-23T03:54:11.497Z,56.52
2022-08-23T03:56:52.048Z,56.28
2022-08-23T03:59:20.732Z,56.37
2022-08-23T04:01:50.624Z,56.49
2022-08-23T04:04:19.305Z,56.84
2022-08-23T04:07:13.630Z,56.99
2022-08-23T04:09:42.050Z,56.52
2022-08-23T04:12:17.404Z,57.00
2022-08-23T04:14:47.533Z,57.11
2022-08-23T04:17:20.987Z,57.16
2022-08-23T04:19:50.426Z,57.42
2022-08-23T04:22:21.095Z,57.27
2022-08-23T04:24:49.913Z,57.37
2022-08-23T04:27:18.758Z,57.68
2022-08-23T04:29:47.985Z,57.62
2022-08-23T04:32:26.647Z,57.93
2022-08-23T04:34:58.662Z,58.16
2022-08-23T04:37:27.961Z,57.79
2022-08-23T04:40:14.227Z,58.10
2022-08-23T04:42:44.253Z,58.20
2022-08-23T04:45:14.143Z,58.42
2022-08-23T04:47:47.635Z,58.77
2022-08-23T04:50:17.487Z,58.84
2022-08-23T04:53:06.327Z,59.19
2022-08-23T04:55:39.205Z,59.29
2022-08-23T04:58:09.322Z,59.20
2022-08-23T05:00:50.849Z,59.26
2022-08-23T05:03:24.275Z,59.45
2022-08-23T05:05:54.668Z,59.51
2022-08-23T05:08:28.976Z,59.85
2022-08-23T05:10:57.569Z,59.71
2022-08-23T05:13:26.108Z,59.33
2022-08-23T05:15:54.410Z,59.60
2022-08-23T05:18:28.696Z,59.83
2022-08-23T05:20:57.489Z,60.17
2022-08-23T05:23:31.892Z,59.81
2022-08-23T05:26:12.776Z,60.10
2022-08-23T05:28:46.065Z,59.90
2022-08-23T05:31:19.448Z,60.13
2022-08-23T05:33:54.646Z,60.00
2022-08-23T05:36:30.827Z,60.08
2022-08-23T05:38:59.338Z,60.26
2022-08-23T05:41:37.840Z,60.19
2022-08-23T05:44:08.971Z,60.39
2022-08-23T05:46:39.087Z,61.04
2022-08-23T05:49:38.211Z,60.92
2022-08-23T05:52:11.826Z,61.73
2022-08-23T05:54:41.946Z,61.47
2022-08-23T05:57:39.886Z,63.93
2022-08-23T06:00:13.543Z,64.24
2022-08-23T06:02:49.165Z,65.25
2022-08-23T06:05:20.587Z,64.02
2022-08-23T06:07:50.843Z,62.72
2022-08-23T06:10:21.655Z,62.76
2022-08-23T06:12:56.334Z,64.82
2022-08-23T06:15:24.775Z,65.45
2022-08-23T06:17:53.180Z,64.57
2022-08-23T06:20:23.701Z,64.33
2022-08-23T06:23:03.611Z,63.89
2022-08-23T06:25:32.584Z,63.19
2022-08-23T06:28:14.965Z,63.55
2022-08-23T06:30:43.980Z,63.04
2022-08-23T06:33:36.297Z,62.40
2022-08-23T06:36:25.014Z,63.06
2022-08-23T06:39:14.677Z,63.67
2022-08-23T06:42:22.224Z,63.34
2022-08-23T06:44:54.811Z,63.53
2022-08-23T06:47:37.718Z,62.99
2022-08-23T06:50:07.162Z,61.17
2022-08-23T06:53:07.226Z,61.53
2022-08-23T06:56:05.895Z,61.29
2022-08-23T06:58:54.088Z,61.90
2022-08-23T07:01:52.811Z,61.74
2022-08-23T07:04:35.513Z,62.09
2022-08-23T07:07:11.926Z,61.14
2022-08-23T07:09:42.708Z,60.56
2022-08-23T07:12:11.935Z,61.30
2022-08-23T07:14:44.150Z,61.00
2022-08-23T07:17:14.464Z,61.03
2022-08-23T07:19:43.986Z,60.09
2022-08-23T07:22:12.967Z,60.77
2022-08-23T07:24:45.810Z,60.64
2022-08-23T07:27:15.072Z,60.56
2022-08-23T07:29:53.818Z,59.67
2022-08-23T07:32:22.180Z,59.89
2022-08-23T07:34:52.048Z,59.76
2022-08-23T07:37:20.816Z,59.75
2022-08-23T07:39:50.739Z,59.93
2022-08-23T07:42:23.136Z,59.75
2022-08-23T07:44:54.362Z,59.71
2022-08-23T07:47:25.296Z,59.73
2022-08-23T07:49:56.610Z,59.46
2022-08-23T07:52:25.302Z,59.20
2022-08-23T07:54:55.362Z,57.29
2022-08-23T07:57:52.694Z,57.50
2022-08-23T08:00:47.903Z,57.74
2022-08-23T08:03:36.628Z,56.91
2022-08-23T08:06:23.636Z,56.06
2022-08-23T08:08:53.231Z,54.81
2022-08-23T08:11:33.678Z,52.87
2022-08-23T08:14:07.172Z,53.00
2022-08-23T08:16:40.478Z,53.19
2022-08-23T08:19:15.124Z,53.00
2022-08-23T08:22:02.795Z,53.98
2022-08-23T08:25:00.128Z,52.22
2022-08-23T08:27:30.181Z,51.24
2022-08-23T08:30:02.141Z,51.21
2022-08-23T08:32:31.821Z,51.01
2022-08-23T08:35:00.493Z,51.78
2022-08-23T08:37:32.129Z,50.17
2022-08-23T08:40:01.322Z,50.50
2022-08-23T08:42:55.939Z,50.62
2022-08-23T08:45:28.455Z,52.20
2022-08-23T08:48:04.173Z,51.65
2022-08-23T08:50:44.171Z,50.55
2022-08-23T08:53:17.275Z,49.22
2022-08-23T08:56:20.907Z,50.16
2022-08-23T08:59:01.883Z,49.12
2022-08-23T09:01:34.328Z,47.75
2022-08-23T09:04:04.744Z,48.48
2022-08-23T09:06:53.020Z,48.94
2022-08-23T09:10:03.785Z,50.37
2022-08-23T09:12:43.042Z,50.11
2022-08-23T09:15:27.083Z,49.29
2022-08-23T09:18:05.150Z,49.02
2022-08-23T09:20:34.953Z,48.94
2022-08-23T09:23:10.705Z,48.94
2022-08-23T09:25:41.922Z,47.29
2022-08-23T09:28:17.692Z,47.20
2022-08-23T09:30:52.950Z,47.40
2022-08-23T09:33:26.208Z,47.44
2022-08-23T09:36:17.767Z,46.60
2022-08-23T09:38:55.417Z,46.27
2022-08-23T09:41:30.075Z,47.96
2022-08-23T09:44:02.516Z,46.32
2022-08-23T09:46:38.982Z,47.75
2022-08-23T09:49:27.268Z,46.91
2022-08-23T09:52:10.428Z,44.80
2022-08-23T09:54:43.969Z,45.22
2022-08-23T09:57:27.857Z,44.31
2022-08-23T10:00:01.920Z,41.88
2022-08-23T10:02:42.319Z,40.72
2022-08-23T10:05:22.306Z,40.16
2022-08-23T10:07:57.109Z,38.89
2022-08-23T10:10:33.553Z,38.23
2022-08-23T10:13:07.637Z,39.81
2022-08-23T10:15:52.201Z,39.97
2022-08-23T10:18:35.745Z,39.92
2022-08-23T10:21:21.155Z,40.38
2022-08-23T10:24:18.193Z,40.36
2022-08-23T10:27:28.111Z,40.45
2022-08-23T10:30:06.504Z,41.18
2022-08-23T10:32:55.078Z,40.96
2022-08-23T10:35:47.508Z,40.48
2022-08-23T10:38:38.730Z,40.48
2022-08-23T10:41:39.488Z,41.74
2022-08-23T10:44:24.685Z,40.18
2022-08-23T10:47:06.547Z,41.59
2022-08-23T10:49:37.807Z,40.92
2022-08-23T10:52:13.475Z,39.63
2022-08-23T10:54:59.618Z,39.65
2022-08-23T10:57:35.449Z,39.57
2022-08-23T11:00:09.081Z,37.76
2022-08-23T11:02:46.993Z,38.12
2022-08-23T11:05:27.097Z,37.13
2022-08-23T11:08:02.759Z,37.44
2022-08-23T11:10:53.680Z,37.87
2022-08-23T11:13:32.387Z,39.52
2022-08-23T11:16:06.787Z,38.27
2022-08-23T11:18:53.358Z,38.65
2022-08-23T11:21:49.230Z,37.60
2022-08-23T11:24:54.342Z,36.65
2022-08-23T11:27:35.594Z,37.14
2022-08-23T11:30:46.687Z,38.04
2022-08-23T11:33:22.357Z,38.61
2022-08-23T11:35:54.378Z,35.82
2022-08-23T11:39:02.012Z,36.22
2022-08-23T11:41:34.589Z,38.23
2022-08-23T11:44:29.095Z,37.23
2022-08-23T11:47:45.685Z,37.07
2022-08-23T11:50:24.996Z,36.64
2022-08-23T11:53:15.918Z,36.65
2022-08-23T11:56:12.728Z,37.15
2022-08-23T11:59:08.995Z,37.80
2022-08-23T12:01:40.676Z,37.02
2022-08-23T12:04:14.706Z,36.77
2022-08-23T12:06:51.099Z,37.11
2022-08-23T12:12:40.862Z,37.06
2022-08-23T12:15:14.337Z,34.56
2022-08-23T12:18:14.881Z,34.95
2022-08-23T12:20:48.455Z,35.32
2022-08-23T12:23:22.651Z,34.99
2022-08-23T12:26:11.010Z,36.14
2022-08-23T12:28:48.071Z,34.45
2022-08-23T12:31:33.646Z,33.67
2022-08-23T12:34:18.780Z,34.20
2022-08-23T12:36:58.824Z,34.71
2022-08-23T12:39:34.366Z,33.10
2022-08-23T12:42:08.257Z,34.40
2022-08-23T12:44:36.800Z,34.04
2022-08-23T12:47:18.183Z,34.67
2022-08-23T12:49:58.759Z,33.03
2022-08-23T12:52:31.579Z,33.21
2022-08-23T12:55:00.382Z,32.93
2022-08-23T12:57:41.166Z,32.87
2022-08-23T13:00:20.386Z,32.58
2022-08-23T13:02:57.678Z,31.81
2022-08-23T13:05:39.032Z,32.72
2022-08-23T13:08:11.611Z,32.25
2022-08-23T13:10:42.919Z,31.39
2022-08-23T13:13:15.167Z,31.80
2022-08-23T13:15:50.634Z,31.71
2022-08-23T13:18:33.736Z,31.57
2022-08-23T13:21:27.665Z,31.55
2022-08-23T13:24:00.875Z,31.61
2022-08-23T13:26:38.220Z,30.49
2022-08-23T13:29:21.172Z,30.04
2022-08-23T13:31:52.867Z,30.04
2022-08-23T13:34:48.697Z,30.17
2022-08-23T13:37:22.684Z,30.15
2022-08-23T13:39:56.703Z,30.00
2022-08-23T13:42:32.955Z,29.78
2022-08-23T13:45:10.383Z,29.46
2022-08-23T13:47:39.006Z,28.86
2022-08-23T13:50:18.272Z,27.29
2022-08-23T13:53:11.408Z,26.45
2022-08-23T13:55:44.784Z,25.69
2022-08-23T13:58:18.924Z,25.19
2022-08-23T14:00:55.282Z,25.15
2022-08-23T14:03:25.310Z,25.82
2022-08-23T14:05:55.222Z,25.85
2022-08-23T14:08:23.925Z,25.07
2022-08-23T14:10:52.920Z,25.42
2022-08-23T14:13:25.899Z,25.52
2022-08-23T14:15:56.667Z,24.34
2022-08-23T14:18:27.862Z,24.92
2022-08-23T14:20:57.732Z,24.81
2022-08-23T14:23:26.807Z,24.69
2022-08-23T14:25:58.940Z,23.78
2022-08-23T14:28:31.455Z,23.64
2022-08-23T14:30:59.971Z,22.96
2022-08-23T14:33:28.843Z,23.13
2022-08-23T14:35:58.749Z,22.26
2022-08-23T14:38:27.290Z,23.28
2022-08-23T14:40:59.354Z,23.71
2022-08-23T14:43:28.890Z,23.98
2022-08-23T14:45:58.385Z,23.35
2022-08-23T14:48:26.864Z,22.94
2022-08-23T14:50:56.655Z,22.78
2022-08-23T14:53:30.920Z,22.59
2022-08-23T14:56:20.646Z,22.03
2022-08-23T14:58:48.176Z,21.96
2022-08-23T15:01:16.873Z,21.95
2022-08-23T15:03:46.331Z,21.88
2022-08-23T15:06:17.164Z,22.43
2022-08-23T15:08:47.567Z,22.56
2022-08-23T15:14:05.504Z,22.35
2022-08-23T15:16:35.480Z,22.43
2022-08-23T15:19:04.173Z,22.23
2022-08-23T15:21:32.843Z,21.37
2022-08-23T15:24:02.721Z,22.10
2022-08-23T15:26:32.537Z,22.47
2022-08-23T15:29:02.062Z,22.65
2022-08-23T15:31:30.675Z,22.52
2022-08-23T15:34:00.218Z,21.79
2022-08-23T15:36:30.016Z,21.83
2022-08-23T15:39:00.317Z,22.21
2022-08-23T15:41:30.236Z,21.54
2022-08-23T15:43:58.945Z,20.78
2022-08-23T15:46:27.618Z,20.72
2022-08-23T15:49:01.925Z,20.82
2022-08-23T15:51:31.127Z,21.04
2022-08-23T15:53:59.721Z,20.64
2022-08-23T15:56:33.653Z,20.56
2022-08-23T15:59:02.631Z,20.73
2022-08-23T16:01:33.877Z,20.32
2022-08-23T16:04:02.882Z,20.39
2022-08-23T16:06:36.297Z,20.41
2022-08-23T16:09:09.138Z,20.54
2022-08-23T16:11:42.500Z,20.67
2022-08-23T16:14:11.107Z,20.75
2022-08-23T16:16:42.100Z,21.25
2022-08-23T16:19:11.511Z,21.46
2022-08-23T16:21:40.735Z,21.46
2022-08-23T16:24:09.638Z,21.35
2022-08-23T16:26:46.697Z,21.29
2022-08-23T16:29:18.451Z,21.75
2022-08-23T16:31:48.186Z,21.79
2022-08-23T16:34:19.868Z,22.08
2022-08-23T16:36:52.357Z,22.03
2022-08-23T16:39:24.183Z,22.34
2022-08-23T16:41:54.038Z,22.87
2022-08-23T16:44:22.936Z,22.80
2022-08-23T16:46:52.330Z,22.62
2022-08-23T16:49:21.219Z,23.62
2022-08-23T16:51:50.603Z,22.97
2022-08-23T16:54:19.572Z,23.67
2022-08-23T16:56:48.218Z,23.32
2022-08-23T16:59:19.162Z,23.22
2022-08-23T17:01:50.753Z,23.30
2022-08-23T17:04:24.205Z,23.76
2022-08-23T17:06:53.926Z,23.31
2022-08-23T17:09:23.705Z,23.56
2022-08-23T17:11:54.110Z,22.88
2022-08-23T17:14:25.042Z,23.54
2022-08-23T17:16:53.505Z,23.54
2022-08-23T17:19:21.916Z,23.37
2022-08-23T17:21:50.833Z,24.39
2022-08-23T17:24:19.335Z,23.06
2022-08-23T17:26:48.633Z,23.60
2022-08-23T17:29:17.108Z,24.23
2022-08-23T17:31:50.026Z,23.28
2022-08-23T17:34:18.576Z,24.02
2022-08-23T17:36:50.000Z,24.50
2022-08-23T17:39:21.003Z,24.70
2022-08-23T17:41:50.090Z,25.31
2022-08-23T17:44:20.316Z,24.86
2022-08-23T17:46:50.378Z,25.08
2022-08-23T17:49:21.460Z,24.95
2022-08-23T17:51:49.800Z,25.33
2022-08-23T17:54:18.399Z,25.98
2022-08-23T17:56:50.497Z,25.90
2022-08-23T17:59:19.979Z,25.85
2022-08-23T18:01:49.931Z,26.19
2022-08-23T18:04:18.308Z,25.91
2022-08-23T18:06:47.537Z,26.24
2022-08-23T18:09:16.759Z,26.16
2022-08-23T18:11:46.401Z,26.55
2022-08-23T18:14:14.894Z,26.25
2022-08-23T18:16:45.674Z,26.82
2022-08-23T18:19:15.652Z,26.61
2022-08-23T18:21:45.160Z,27.15
2022-08-23T18:24:14.057Z,27.09
2022-08-23T18:27:00.979Z,26.98
2022-08-23T18:29:29.887Z,27.29
2022-08-23T18:31:58.698Z,27.07
2022-08-23T18:34:29.513Z,27.39
2022-08-23T18:36:58.657Z,27.26
2022-08-23T18:39:31.966Z,27.54
2022-08-23T18:42:01.994Z,27.33
2022-08-23T18:44:31.228Z,27.93
2022-08-23T18:47:01.301Z,28.04
2022-08-23T18:49:33.493Z,28.29
2022-08-23T18:52:02.657Z,28.55
2022-08-23T18:54:33.839Z,28.29
2022-08-23T18:57:02.930Z,27.90
2022-08-23T18:59:31.579Z,28.20
2022-08-23T19:02:00.499Z,28.45
2022-08-23T19:04:31.199Z,29.16
2022-08-23T19:06:59.788Z,28.64
2022-08-23T19:09:28.178Z,28.69
2022-08-23T19:11:56.932Z,28.95
2022-08-23T19:14:25.364Z,29.34
2022-08-23T19:16:53.952Z,29.99
2022-08-23T19:19:23.961Z,30.32
2022-08-23T19:21:53.718Z,30.17
2022-08-23T19:24:23.620Z,30.09
2022-08-23T19:26:52.568Z,30.33
2022-08-23T19:29:21.726Z,30.91
2022-08-23T19:31:50.580Z,31.19
2022-08-23T19:34:22.173Z,30.97
2022-08-23T19:37:00.237Z,31.39
2022-08-23T19:39:31.703Z,31.23
2022-08-23T19:42:00.053Z,30.87
2022-08-23T19:44:28.845Z,31.16
2022-08-23T19:46:57.628Z,31.02
2022-08-23T19:49:26.023Z,31.54
2022-08-23T19:51:54.877Z,31.42
2022-08-23T19:54:23.282Z,31.33
2022-08-23T19:56:58.412Z,31.41
2022-08-23T19:59:30.683Z,31.69
2022-08-23T20:02:00.190Z,31.99
2022-08-23T20:04:32.518Z,32.13
2022-08-23T20:07:02.842Z,32.09
2022-08-23T20:09:32.941Z,32.61
2022-08-23T20:12:03.168Z,32.47
2022-08-23T20:14:33.218Z,33.04
2022-08-23T20:17:04.299Z,33.82
2022-08-23T20:19:32.798Z,33.59
2022-08-23T20:22:16.220Z,33.89
2022-08-23T20:24:53.361Z,33.84
2022-08-23T20:27:24.187Z,34.84
2022-08-23T20:30:00.237Z,34.74
2022-08-23T20:32:28.802Z,34.69
2022-08-23T20:34:57.163Z,35.25
2022-08-23T20:37:25.762Z,35.17
2022-08-23T20:39:54.638Z,35.10
2022-08-23T20:42:25.361Z,35.62
2022-08-23T20:44:53.919Z,35.56
2022-08-23T20:47:22.417Z,35.93
2022-08-23T20:49:51.020Z,35.77
2022-08-23T20:52:19.377Z,35.68
2022-08-23T20:54:47.836Z,36.16
2022-08-23T20:57:16.162Z,35.86
2022-08-23T20:59:46.434Z,35.90
2022-08-23T21:02:14.926Z,36.04
2022-08-23T21:04:43.318Z,36.10
2022-08-23T21:07:12.535Z,36.35
2022-08-23T21:09:41.677Z,36.69
2022-08-23T21:12:10.329Z,36.32
2022-08-23T21:14:38.990Z,37.04
2022-08-23T21:17:08.913Z,36.91
2022-08-23T21:19:38.102Z,36.81
2022-08-23T21:22:07.146Z,36.79
2022-08-23T21:24:35.996Z,37.01
2022-08-23T21:27:09.443Z,37.17
2022-08-23T21:29:38.910Z,37.36
2022-08-23T21:32:09.306Z,37.50
2022-08-23T21:34:37.890Z,37.54
2022-08-23T21:37:06.591Z,37.88
2022-08-23T21:39:35.347Z,38.06
2022-08-23T21:42:14.181Z,38.26
2022-08-23T21:44:45.079Z,38.64
2022-08-23T21:47:16.043Z,38.52
2022-08-23T21:49:44.621Z,38.68
2022-08-23T21:52:13.019Z,38.93
2022-08-23T21:54:43.576Z,39.20
2022-08-23T21:57:12.326Z,39.56
2022-08-23T21:59:41.383Z,39.88
2022-08-23T22:02:10.194Z,39.84
2022-08-23T22:04:40.160Z,39.83
2022-08-23T22:07:08.707Z,39.95
2022-08-23T22:09:37.276Z,40.11
2022-08-23T22:12:06.467Z,40.54
2022-08-23T22:14:34.981Z,40.70
2022-08-23T22:17:03.622Z,41.01
2022-08-23T22:19:32.109Z,41.69
2022-08-23T22:22:02.859Z,41.68
2022-08-23T22:24:31.544Z,41.90
2022-08-23T22:26:59.921Z,42.26
2022-08-23T22:29:28.284Z,42.61
2022-08-23T22:31:56.589Z,42.85
2022-08-23T22:34:25.345Z,43.12
2022-08-23T22:36:55.104Z,43.33
2022-08-23T22:39:25.149Z,43.77
2022-08-23T22:41:54.173Z,44.13
2022-08-23T22:44:22.861Z,44.34
2022-08-23T22:46:51.143Z,44.99
2022-08-23T22:49:19.533Z,45.07
2022-08-23T22:51:49.199Z,45.59
2022-08-23T22:54:25.510Z,45.49
2022-08-23T22:56:55.084Z,45.85
2022-08-23T22:59:27.522Z,45.93
2022-08-23T23:01:58.452Z,46.11
2022-08-23T23:04:29.435Z,46.74
2022-08-23T23:06:58.260Z,46.84
2022-08-23T23:09:28.369Z,46.77
2022-08-23T23:11:56.975Z,46.94
2022-08-23T23:14:25.564Z,47.32
2022-08-23T23:16:54.414Z,47.11
2022-08-23T23:19:40.435Z,47.47
2022-08-23T23:22:10.101Z,47.47
2022-08-23T23:24:41.144Z,47.26
2022-08-23T23:27:10.022Z,47.85
2022-08-23T23:29:38.482Z,47.61
2022-08-23T23:32:07.681Z,47.87
2022-08-23T23:34:37.810Z,48.08
2022-08-23T23:37:06.600Z,47.70
2022-08-23T23:39:35.058Z,47.66
2022-08-23T23:42:05.348Z,47.66
2022-08-23T23:44:33.721Z,47.88
2022-08-23T23:47:02.891Z,47.87
2022-08-23T23:49:33.603Z,48.03
2022-08-23T23:52:04.180Z,47.80
2022-08-23T23:54:33.866Z,47.97
2022-08-23T23:57:04.070Z,47.87
2022-08-23T23:59:32.459Z,47.76
